Time;durP1;ratioP1;P1;durP2;ratioP2;P2;SDS_P1;SDS_P2;PMS_P1;PMS_P2;Temp;Humidity;BMP_temperature;BMP_pressure;BME280_temperature;BME280_humidity;BME280_pressure;Samples;Min_cycle;Max_cycle;Signal;HPM_P1;HPM_P2
2020/12/22 00:00:32;;;;;;;;;;;;;;;8.01;100.00;100717.19;5073921;28;20176;-74
2020/12/22 00:03:00;;;;;;;;;;;;;;;8.02;100.00;100702.91;5075291;28;20381;-74
2020/12/22 00:05:27;;;;;;;;;;;;;;;8.02;100.00;100696.72;5060357;28;19924;-74
2020/12/22 00:07:54;;;;;;;;;;;;;;;8.01;100.00;100711.84;5079971;28;19925;-75
2020/12/22 00:10:21;;;;;;;;;;;;;;;8.00;100.00;100702.09;5080170;28;20389;-74
2020/12/22 00:12:48;;;;;;;;;;;;;;;8.00;100.00;100688.78;5079458;28;19932;-74
2020/12/22 00:15:14;;;;;;;;;;;;;;;7.96;100.00;100692.50;5062564;28;20019;-75
2020/12/22 00:17:43;;;;;;;;;;;;;;;7.99;100.00;100673.72;5076163;28;19947;-74
2020/12/22 00:20:11;;;;;;;;;;;;;;;8.01;100.00;100677.19;5073843;28;19928;-74
2020/12/22 00:22:39;;;;;;;;;;;;;;;8.01;100.00;100665.66;5074097;28;19931;-74
2020/12/22 00:25:06;;;;;;;;;;;;;;;8.01;100.00;100660.34;5080326;28;21488;-74
2020/12/22 00:27:33;;;;;;;;;;;;;;;7.99;100.00;100654.19;5081241;28;19956;-73
2020/12/22 00:30:01;;;;;;;;;;;;;;;7.93;100.00;100645.53;5072757;28;20000;-74
2020/12/22 00:32:28;;;;;;;;;;;;;;;7.97;100.00;100635.59;5076834;28;20652;-74
2020/12/22 00:34:55;;;;;;;;;;;;;;;7.98;100.00;100640.00;5079167;28;19936;-74
2020/12/22 00:37:22;;;;;;;;;;;;;;;7.98;100.00;100648.00;5078829;28;20031;-73
2020/12/22 00:39:49;;;;;;;;;;;;;;;7.99;100.00;100638.19;5078313;28;19925;-72
2020/12/22 00:42:16;;;;;;;;;;;;;;;7.98;100.00;100634.66;5072560;28;19951;-73
2020/12/22 00:44:43;;;;;;;;;;;;;;;7.99;100.00;100628.38;5056816;28;19935;-74
2020/12/22 00:47:11;;;;;;;;;;;;;;;7.92;100.00;100614.44;5080026;28;20016;-74
2020/12/22 00:49:38;;;;;;;;;;;;;;;7.93;100.00;100617.97;5080198;28;20045;-73
2020/12/22 00:52:06;;;;;;;;;;;;;;;7.89;100.00;100603.03;5082861;28;19950;-74
2020/12/22 00:54:34;;;;;;;;;;;;;;;7.90;100.00;100596.78;5079846;28;20413;-73
2020/12/22 00:57:02;;;;;;;;;;;;;;;7.91;100.00;100588.72;5061798;28;19925;-74
2020/12/22 00:59:50;;;;;;;;;;;;;;;7.91;100.00;100587.84;5075359;28;19935;-74
2020/12/22 01:02:17;;;;;;;;;;;;;;;7.94;100.00;100580.59;5077132;28;19928;-74
2020/12/22 01:04:44;;;;;;;;;;;;;;;7.94;100.00;100577.06;5080390;28;22455;-73
2020/12/22 01:07:11;;;;;;;;;;;;;;;7.94;100.00;100580.59;5078145;28;20000;-74
2020/12/22 01:09:39;;;;;;;;;;;;;;;7.94;100.00;100577.94;5082199;28;20412;-72
2020/12/22 01:12:06;;;;;;;;;;;;;;;7.93;100.00;100577.97;5074631;28;19956;-74
2020/12/22 01:14:33;;;;;;;;;;;;;;;7.95;100.00;100576.13;5093229;28;20404;-74
2020/12/22 01:17:00;;;;;;;;;;;;;;;7.93;100.00;100570.88;5078483;28;19979;-74
2020/12/22 01:19:27;;;;;;;;;;;;;;;7.92;100.00;100569.13;5081520;28;20565;-74
2020/12/22 01:21:54;;;;;;;;;;;;;;;7.91;100.00;100562.06;5083432;28;19931;-74
2020/12/22 01:24:21;;;;;;;;;;;;;;;7.91;100.00;100554.06;5064612;28;19940;-74
2020/12/22 01:26:49;;;;;;;;;;;;;;;7.91;100.00;100546.06;5078876;28;20423;-73
2020/12/22 01:29:16;;;;;;;;;;;;;;;7.90;100.00;100539.00;5082888;28;20339;-74
2020/12/22 01:31:43;;;;;;;;;;;;;;;7.91;100.00;100537.19;5083386;28;19932;-74
2020/12/22 01:34:10;;;;;;;;;;;;;;;7.90;100.00;100528.34;5077440;28;19936;-74
2020/12/22 01:36:38;;;;;;;;;;;;;;;7.90;100.00;100516.81;5078177;28;19940;-72
2020/12/22 01:39:06;;;;;;;;;;;;;;;7.86;100.00;100512.53;5078492;28;19936;-71
2020/12/22 01:41:33;;;;;;;;;;;;;;;7.86;100.00;100502.75;5078533;28;20409;-73
2020/12/22 01:44:04;;;;;;;;;;;;;;;7.88;100.00;100494.69;5083889;28;19924;-74
2020/12/22 01:46:50;;;;;;;;;;;;;;;7.89;100.00;100485.72;5078364;28;20591;-71
2020/12/22 01:49:18;;;;;;;;;;;;;;;7.90;100.00;100475.03;5074779;28;19925;-73
2020/12/22 01:51:46;;;;;;;;;;;;;;;7.89;100.00;100472.41;5081525;28;19936;-73
2020/12/22 01:54:13;;;;;;;;;;;;;;;7.89;100.00;100464.41;5077229;28;19929;-74
2020/12/22 01:56:40;;;;;;;;;;;;;;;7.89;100.00;100461.75;5078673;28;19935;-74
2020/12/22 01:59:08;;;;;;;;;;;;;;;7.89;100.00;100445.75;5080871;28;19928;-73
2020/12/22 02:01:35;;;;;;;;;;;;;;;7.89;100.00;100435.94;5078779;28;19928;-74
2020/12/22 02:04:03;;;;;;;;;;;;;;;7.89;100.00;100432.41;5080184;28;19925;-73
2020/12/22 02:06:30;;;;;;;;;;;;;;;7.89;100.00;100427.09;5075058;28;19935;-74
2020/12/22 02:08:57;;;;;;;;;;;;;;;7.88;100.00;100418.22;5074808;28;19925;-73
2020/12/22 02:11:25;;;;;;;;;;;;;;;7.85;100.00;100407.69;5075357;28;19986;-73
2020/12/22 02:13:55;;;;;;;;;;;;;;;7.87;100.00;100404.97;5065705;28;19947;-74
2020/12/22 02:16:24;;;;;;;;;;;;;;;7.87;100.00;100407.66;5080060;28;20308;-74
2020/12/22 02:18:53;;;;;;;;;;;;;;;7.85;100.00;100406.84;5081135;28;19932;-73
2020/12/22 02:21:21;;;;;;;;;;;;;;;7.83;100.00;100392.75;5074065;28;19931;-73
2020/12/22 02:23:49;;;;;;;;;;;;;;;7.83;100.00;100388.25;5078375;28;19924;-73
2020/12/22 02:26:16;;;;;;;;;;;;;;;7.84;100.00;100389.13;5076578;28;19951;-74
2020/12/22 02:28:43;;;;;;;;;;;;;;;7.78;100.00;100390.25;5079635;28;19924;-73
2020/12/22 02:31:10;;;;;;;;;;;;;;;7.77;100.00;100377.00;5080985;28;19924;-73
2020/12/22 02:33:37;;;;;;;;;;;;;;;7.78;100.00;100371.59;5078217;28;19928;-74
2020/12/22 02:36:08;;;;;;;;;;;;;;;7.77;100.00;100366.34;5074273;28;19924;-74
2020/12/22 02:38:35;;;;;;;;;;;;;;;7.78;100.00;100352.94;5078217;28;19984;-73
2020/12/22 02:41:02;;;;;;;;;;;;;;;7.79;100.00;100343.13;5081325;28;19928;-74
2020/12/22 02:43:30;;;;;;;;;;;;;;;7.78;100.00;100341.41;5081354;28;19928;-74
2020/12/22 02:45:56;;;;;;;;;;;;;;;7.78;100.00;100328.09;5081913;28;19929;-73
2020/12/22 02:48:23;;;;;;;;;;;;;;;7.77;100.00;100327.22;5073780;28;19928;-73
2020/12/22 02:50:50;;;;;;;;;;;;;;;7.79;100.00;100324.47;5064581;28;19925;-73
2020/12/22 02:53:18;;;;;;;;;;;;;;;7.79;100.00;100313.81;5080767;28;19925;-73
2020/12/22 02:55:46;;;;;;;;;;;;;;;7.79;100.00;100317.38;5062078;28;19932;-74
2020/12/22 02:58:14;;;;;;;;;;;;;;;7.79;100.00;100306.72;5081767;28;19928;-73
2020/12/22 03:00:41;;;;;;;;;;;;;;;7.80;100.00;100296.91;5078733;28;20474;-74
2020/12/22 03:03:08;;;;;;;;;;;;;;;7.78;100.00;100293.44;5075845;28;20306;-73
2020/12/22 03:05:35;;;;;;;;;;;;;;;7.76;100.00;100285.53;5055794;28;19935;-73
2020/12/22 03:08:02;;;;;;;;;;;;;;;7.76;100.00;100272.22;5081244;28;20003;-73
2020/12/22 03:10:29;;;;;;;;;;;;;;;7.75;100.00;100262.47;5079578;28;19992;-74
2020/12/22 03:12:58;;;;;;;;;;;;;;;7.76;100.00;100253.56;5080532;28;19935;-74
2020/12/22 03:15:24;;;;;;;;;;;;;;;7.77;100.00;100251.75;5079702;28;19936;-73
2020/12/22 03:17:51;;;;;;;;;;;;;;;7.77;100.00;100241.09;5076777;28;19929;-74
2020/12/22 03:20:18;;;;;;;;;;;;;;;7.75;100.00;100235.81;5080530;28;20340;-74
2020/12/22 03:22:45;;;;;;;;;;;;;;;7.76;100.00;100242.03;5077101;28;19929;-74
2020/12/22 03:25:12;;;;;;;;;;;;;;;7.75;100.00;100235.81;5080487;28;19928;-73
2020/12/22 03:27:40;;;;;;;;;;;;;;;7.74;100.00;100235.91;5079940;28;19936;-74
2020/12/22 03:30:09;;;;;;;;;;;;;;;7.75;100.00;100229.63;5076628;28;20002;-74
2020/12/22 03:32:36;;;;;;;;;;;;;;;7.75;100.00;100235.81;5073645;28;19952;-73
2020/12/22 03:35:03;;;;;;;;;;;;;;;7.75;100.00;100225.16;5079703;28;19929;-73
2020/12/22 03:37:30;;;;;;;;;;;;;;;7.74;100.00;100227.91;5075602;28;19928;-74
2020/12/22 03:40:00;;;;;;;;;;;;;;;7.73;100.00;100227.03;5079890;28;20312;-74
2020/12/22 03:42:27;;;;;;;;;;;;;;;7.73;100.00;100220.84;5080242;28;19932;-73
2020/12/22 03:44:55;;;;;;;;;;;;;;;7.70;100.00;100217.38;5078340;28;19924;-73
2020/12/22 03:47:23;;;;;;;;;;;;;;;7.71;100.00;100212.91;5075212;28;19948;-73
2020/12/22 03:49:50;;;;;;;;;;;;;;;7.71;100.00;100197.78;5073601;28;19924;-73
2020/12/22 03:52:18;;;;;;;;;;;;;;;7.69;100.00;100194.34;5081618;28;19928;-73
2020/12/22 03:54:44;;;;;;;;;;;;;;;7.71;100.00;100196.94;5080336;28;19924;-73
2020/12/22 03:57:13;;;;;;;;;;;;;;;7.70;100.00;100182.75;5077922;28;19929;-73
2020/12/22 03:59:40;;;;;;;;;;;;;;;7.70;100.00;100179.22;5075391;28;19972;-73
2020/12/22 04:02:07;;;;;;;;;;;;;;;7.68;100.00;100171.31;5071166;28;19932;-73
2020/12/22 04:04:35;;;;;;;;;;;;;;;7.67;100.00;100166.03;5078179;28;19928;-73
2020/12/22 04:07:02;;;;;;;;;;;;;;;7.66;100.00;100151.00;5080619;28;19925;-73
2020/12/22 04:09:30;;;;;;;;;;;;;;;7.66;100.00;100154.53;5078576;28;20362;-74
2020/12/22 04:11:56;;;;;;;;;;;;;;;7.68;100.00;100147.31;5077851;28;19948;-74
2020/12/22 04:14:24;;;;;;;;;;;;;;;7.68;100.00;100149.09;5073134;28;19997;-74
2020/12/22 04:16:51;;;;;;;;;;;;;;;7.67;100.00;100142.91;5077999;28;20018;-73
2020/12/22 04:19:18;;;;;;;;;;;;;;;7.68;100.00;100144.66;5074846;28;19951;-73
2020/12/22 04:21:47;;;;;;;;;;;;;;;7.67;100.00;100144.72;5061087;28;19929;-74
2020/12/22 04:24:14;;;;;;;;;;;;;;;7.66;100.00;100137.66;5085159;28;19995;-74
2020/12/22 04:26:42;;;;;;;;;;;;;;;7.66;100.00;100135.00;5079824;28;19925;-73
2020/12/22 04:29:09;;;;;;;;;;;;;;;7.67;100.00;100118.06;5079854;28;19939;-74
2020/12/22 04:31:36;;;;;;;;;;;;;;;7.65;100.00;100096.84;5085166;28;19950;-74
2020/12/22 04:34:04;;;;;;;;;;;;;;;7.66;100.00;100103.03;5078128;28;19925;-73
2020/12/22 04:36:30;;;;;;;;;;;;;;;7.65;100.00;100083.53;5083922;28;19931;-74
2020/12/22 04:38:58;;;;;;;;;;;;;;;7.65;100.00;100080.84;5084685;28;19925;-74
2020/12/22 04:41:25;;;;;;;;;;;;;;;7.64;100.00;100073.78;5075680;28;19954;-71
2020/12/22 04:43:52;;;;;;;;;;;;;;;7.64;100.00;100081.78;5078390;28;19936;-74
2020/12/22 04:46:21;;;;;;;;;;;;;;;7.64;100.00;100073.78;5083104;28;19971;-74
2020/12/22 04:48:52;;;;;;;;;;;;;;;7.64;100.00;100064.94;5080086;28;19959;-73
2020/12/22 04:51:21;;;;;;;;;;;;;;;7.63;100.00;100058.75;5079973;28;20397;-74
2020/12/22 04:54:04;;;;;;;;;;;;;;;7.63;100.00;100065.88;5078589;28;19959;-73
2020/12/22 04:56:31;;;;;;;;;;;;;;;7.63;100.00;100071.19;5077159;28;19955;-74
2020/12/22 04:58:59;;;;;;;;;;;;;;;7.62;100.00;100073.00;5062748;28;19928;-73
2020/12/22 05:01:26;;;;;;;;;;;;;;;7.64;100.00;100091.56;5078567;28;19928;-74
2020/12/22 05:03:53;;;;;;;;;;;;;;;7.63;100.00;100090.72;5080345;28;19928;-74
2020/12/22 05:06:20;;;;;;;;;;;;;;;7.63;100.00;100077.41;5082711;28;19928;-74
2020/12/22 05:08:47;;;;;;;;;;;;;;;7.64;100.00;100088.91;5080373;28;19950;-74
2020/12/22 05:11:16;;;;;;;;;;;;;;;7.63;100.00;100081.88;5079792;28;20032;-74
2020/12/22 05:13:43;;;;;;;;;;;;;;;7.61;100.00;100063.31;5081198;28;19935;-74
2020/12/22 05:16:10;;;;;;;;;;;;;;;7.61;100.00;100054.41;5081750;28;19928;-73
2020/12/22 05:18:37;;;;;;;;;;;;;;;7.60;100.00;100056.22;5080457;28;19932;-74
2020/12/22 05:21:19;;;;;;;;;;;;;;;7.61;100.00;100054.41;5084286;28;20251;-74
2020/12/22 05:23:46;;;;;;;;;;;;;;;7.60;100.00;100034.06;5077691;28;19936;-74
2020/12/22 05:26:14;;;;;;;;;;;;;;;7.60;100.00;100032.25;5081299;28;19928;-74
2020/12/22 05:28:42;;;;;;;;;;;;;;;7.60;100.00;100026.91;5082052;28;19989;-74
2020/12/22 05:31:12;;;;;;;;;;;;;;;7.60;100.00;100024.25;5080958;28;19962;-74
2020/12/22 05:33:41;;;;;;;;;;;;;;;7.60;100.00;100018.91;5076863;28;19939;-74
2020/12/22 05:36:08;;;;;;;;;;;;;;;7.60;100.00;99997.59;5078503;28;19928;-72
2020/12/22 05:38:37;;;;;;;;;;;;;;;7.59;100.00;99990.56;5078087;28;19924;-73
2020/12/22 05:41:06;;;;;;;;;;;;;;;7.59;100.00;99984.38;5083454;28;20503;-74
2020/12/22 05:43:37;;;;;;;;;;;;;;;7.58;100.00;99972.88;5065229;28;19929;-73
2020/12/22 05:46:04;;;;;;;;;;;;;;;7.58;100.00;99964.03;5065007;28;19936;-72
2020/12/22 05:48:32;;;;;;;;;;;;;;;7.58;100.00;99956.88;5081178;28;20870;-74
2020/12/22 05:51:03;;;;;;;;;;;;;;;7.57;100.00;99959.59;5079261;28;19950;-74
2020/12/22 05:53:30;;;;;;;;;;;;;;;7.57;100.00;99955.13;5074236;28;19971;-73
2020/12/22 05:56:13;;;;;;;;;;;;;;;7.58;100.00;99953.34;5082105;28;19929;-74
2020/12/22 05:58:40;;;;;;;;;;;;;;;7.57;100.00;99965.78;5079873;28;19947;-74
2020/12/22 06:01:09;;;;;;;;;;;;;;;7.57;100.00;99955.13;5083576;28;20619;-73
2020/12/22 06:03:37;;;;;;;;;;;;;;;7.58;100.00;99956.03;5077454;28;19928;-73
2020/12/22 06:06:03;;;;;;;;;;;;;;;7.56;100.00;99950.75;5075596;28;20438;-72
2020/12/22 06:08:30;;;;;;;;;;;;;;;7.57;100.00;99938.28;5079508;28;19933;-74
2020/12/22 06:11:00;;;;;;;;;;;;;;;7.55;100.00;99933.06;5084850;28;19940;-73
2020/12/22 06:13:27;;;;;;;;;;;;;;;7.55;100.00;99925.06;5082074;28;20419;-74
2020/12/22 06:15:54;;;;;;;;;;;;;;;7.56;100.00;99931.25;5061401;28;19935;-74
2020/12/22 06:18:22;;;;;;;;;;;;;;;7.54;100.00;99923.34;5078487;28;20035;-72
2020/12/22 06:20:49;;;;;;;;;;;;;;;7.55;100.00;99924.22;5072444;28;19925;-73
2020/12/22 06:23:19;;;;;;;;;;;;;;;7.53;100.00;99918.09;5078657;28;19962;-74
2020/12/22 06:25:46;;;;;;;;;;;;;;;7.53;100.00;99913.63;5082390;28;19934;-73
2020/12/22 06:28:27;;;;;;;;;;;;;;;7.54;100.00;99915.34;5062317;28;19928;-74
2020/12/22 06:30:54;;;;;;;;;;;;;;;7.53;100.00;99905.63;5080475;28;20356;-74
2020/12/22 06:33:36;;;;;;;;;;;;;;;7.51;100.00;99899.53;5061734;28;19925;-72
2020/12/22 06:36:04;;;;;;;;;;;;;;;7.53;100.00;99899.44;5075908;28;19924;-73
2020/12/22 06:38:45;;;;;;;;;;;;;;;7.54;100.00;99907.38;5080843;28;20011;-73
2020/12/22 06:41:24;;;;;;;;;;;;;;;7.53;100.00;99894.97;5079836;28;19986;-74
2020/12/22 06:43:53;;;;;;;;;;;;;;;7.53;100.00;99892.31;5076756;28;19996;-74
2020/12/22 06:46:40;;;;;;;;;;;;;;;7.52;100.00;99887.94;5073297;28;19997;-76
2020/12/22 06:49:08;;;;;;;;;;;;;;;7.53;100.00;99884.31;5071024;28;19936;-76
2020/12/22 06:51:36;;;;;;;;;;;;;;;7.53;100.00;99878.97;5074200;28;19959;-76
2020/12/22 06:54:26;;;;;;;;;;;;;;;7.52;100.00;99882.59;5048579;28;19954;-74
2020/12/22 06:56:54;;;;;;;;;;;;;;;7.54;100.00;99883.38;5080833;28;19931;-75
2020/12/22 06:59:36;;;;;;;;;;;;;;;7.54;100.00;99870.06;5075530;28;19935;-75
2020/12/22 07:02:03;;;;;;;;;;;;;;;7.52;100.00;99868.41;5060526;28;19964;-75
2020/12/22 07:04:38;;;;;;;;;;;;;;;7.53;100.00;99863.00;5060936;28;19990;-76
2020/12/22 07:07:06;;;;;;;;;;;;;;;7.54;100.00;99870.06;5030462;28;19951;-75
2020/12/22 07:09:34;;;;;;;;;;;;;;;7.55;100.00;99865.59;5022981;28;19933;-72
2020/12/22 07:12:10;;;;;;;;;;;;;;;7.52;100.00;99869.28;5024351;28;20059;-71
2020/12/22 07:14:39;;;;;;;;;;;;;;;7.53;100.00;99862.16;5017987;28;19929;-72
2020/12/22 07:17:13;;;;;;;;;;;;;;;7.53;100.00;99873.66;5008270;28;19924;-72
2020/12/22 07:19:44;;;;;;;;;;;;;;;7.51;100.00;99854.25;5037238;28;20030;-75
2020/12/22 07:22:13;;;;;;;;;;;;;;;7.52;100.00;99855.09;5026240;28;19940;-72
2020/12/22 07:24:41;;;;;;;;;;;;;;;7.52;100.00;99861.28;5022514;28;20833;-76
2020/12/22 07:27:08;;;;;;;;;;;;;;;7.54;100.00;99858.56;5022296;28;19932;-72
2020/12/22 07:29:36;;;;;;;;;;;;;;;7.53;100.00;99854.16;5015616;28;19932;-72
2020/12/22 07:32:03;;;;;;;;;;;;;;;7.52;100.00;99858.63;5016546;28;19932;-74
2020/12/22 07:34:32;;;;;;;;;;;;;;;7.53;100.00;99851.50;5020935;28;20406;-75
2020/12/22 07:37:04;;;;;;;;;;;;;;;7.51;100.00;99846.25;5020286;28;19928;-74
2020/12/22 07:39:32;;;;;;;;;;;;;;;7.51;100.00;99838.25;5023650;28;19929;-75
2020/12/22 07:42:09;;;;;;;;;;;;;;;7.53;100.00;99840.84;5022383;28;20481;-74
2020/12/22 07:44:39;;;;;;;;;;;;;;;7.52;100.00;99834.66;5015023;28;20035;-74
2020/12/22 07:47:08;;;;;;;;;;;;;;;7.53;100.00;99824.84;5017997;28;19947;-75
2020/12/22 07:49:35;;;;;;;;;;;;;;;7.53;100.00;99823.03;5007360;28;20627;-75
2020/12/22 07:52:03;;;;;;;;;;;;;;;7.53;100.00;99822.19;5002456;28;20552;-75
2020/12/22 07:54:31;;;;;;;;;;;;;;;7.54;100.00;99818.59;5003438;28;19932;-75
2020/12/22 07:56:58;;;;;;;;;;;;;;;7.54;100.00;99823.94;5022575;28;20491;-76
2020/12/22 07:59:26;;;;;;;;;;;;;;;7.55;100.00;99815.00;5012479;28;20290;-75
2020/12/22 08:01:54;;;;;;;;;;;;;;;7.55;100.00;99809.66;5014918;28;19933;-75
2020/12/22 08:04:21;;;;;;;;;;;;;;;7.55;100.00;99818.50;5019956;28;19932;-74
2020/12/22 08:06:53;;;;;;;;;;;;;;;7.56;100.00;99814.88;5025711;28;20722;-74
2020/12/22 08:09:27;;;;;;;;;;;;;;;7.56;100.00;99820.22;5035248;28;19933;-73
2020/12/22 08:11:55;;;;;;;;;;;;;;;7.57;100.00;99813.94;5030888;28;19940;-76
2020/12/22 08:14:23;;;;;;;;;;;;;;;7.58;100.00;99817.50;5039786;28;19931;-71
2020/12/22 08:16:51;;;;;;;;;;;;;;;7.56;100.00;99804.22;5046663;28;20497;-74
2020/12/22 08:19:18;;;;;;;;;;;;;;;7.54;100.00;99797.28;5027415;28;20434;-71
2020/12/22 08:21:46;;;;;;;;;;;;;;;7.54;100.00;99798.16;5008627;28;20611;-75
2020/12/22 08:24:15;;;;;;;;;;;;;;;7.54;100.00;99795.47;5030010;28;20423;-74
2020/12/22 08:26:44;;;;;;;;;;;;;;;7.57;100.00;99797.09;5026303;28;20063;-71
2020/12/22 08:29:17;;;;;;;;;;;;;;;7.58;100.00;99788.19;5067678;28;19936;-74
2020/12/22 08:31:45;;;;;;;;;;;;;;;7.59;100.00;99790.75;5069136;28;20028;-75
2020/12/22 08:34:14;;;;;;;;;;;;;;;7.59;100.00;99781.91;5069307;28;19931;-74
2020/12/22 08:36:41;;;;;;;;;;;;;;;7.60;100.00;99778.28;5076531;28;19929;-75
2020/12/22 08:39:16;;;;;;;;;;;;;;;7.59;100.00;99782.75;5067946;28;19964;-75
2020/12/22 08:41:45;;;;;;;;;;;;;;;7.62;100.00;99793.25;5058279;28;19928;-74
2020/12/22 08:44:12;;;;;;;;;;;;;;;7.63;100.00;99784.31;5068647;28;19931;-75
2020/12/22 08:46:41;;;;;;;;;;;;;;;7.63;100.00;99783.44;5074494;28;19935;-74
2020/12/22 08:49:09;;;;;;;;;;;;;;;7.61;100.00;99783.56;5065364;28;19978;-74
2020/12/22 08:51:36;;;;;;;;;;;;;;;7.62;100.00;99782.59;5070830;28;19975;-74
2020/12/22 08:54:03;;;;;;;;;;;;;;;7.63;100.00;99776.31;5066174;28;19928;-74
2020/12/22 08:56:31;;;;;;;;;;;;;;;7.67;100.00;99775.19;5052439;28;20380;-76
2020/12/22 08:58:59;;;;;;;;;;;;;;;7.68;100.00;99771.63;5072962;28;20394;-75
2020/12/22 09:01:28;;;;;;;;;;;;;;;7.69;100.00;99772.47;5070380;28;20006;-71
2020/12/22 09:03:59;;;;;;;;;;;;;;;7.70;100.00;99776.84;5069737;28;19928;-70
2020/12/22 09:06:47;;;;;;;;;;;;;;;7.69;100.00;99773.31;5072032;28;20601;-71
2020/12/22 09:09:16;;;;;;;;;;;;;;;7.69;100.00;99778.66;5060299;28;19935;-70
2020/12/22 09:11:45;;;;;;;;;;;;;;;7.70;100.00;99782.19;5055792;28;19924;-72
2020/12/22 09:14:13;;;;;;;;;;;;;;;7.71;100.00;99781.22;5076533;28;20279;-71
2020/12/22 09:16:57;;;;;;;;;;;;;;;7.72;100.00;99772.31;5078010;28;19935;-72
2020/12/22 09:19:29;;;;;;;;;;;;;;;7.71;100.00;99771.41;5076943;28;19932;-71
2020/12/22 09:21:57;;;;;;;;;;;;;;;7.71;100.00;99765.22;5087277;28;20503;-74
2020/12/22 09:24:23;;;;;;;;;;;;;;;7.73;100.00;99773.16;5074270;28;19932;-72
2020/12/22 09:26:58;;;;;;;;;;;;;;;7.70;100.00;99764.38;5081030;28;19939;-70
2020/12/22 09:29:25;;;;;;;;;;;;;;;7.71;100.00;99766.09;5075652;28;19924;-71
2020/12/22 09:31:53;;;;;;;;;;;;;;;7.73;100.00;99754.50;5074418;28;20385;-71
2020/12/22 09:34:20;;;;;;;;;;;;;;;7.75;100.00;99757.94;5075545;28;19928;-71
2020/12/22 09:36:52;;;;;;;;;;;;;;;7.75;100.00;99755.28;5074784;28;19936;-72
2020/12/22 09:39:19;;;;;;;;;;;;;;;7.78;100.00;99755.09;5074227;28;19963;-71
2020/12/22 09:41:46;;;;;;;;;;;;;;;7.76;100.00;99762.34;5079660;28;19925;-73
2020/12/22 09:44:13;;;;;;;;;;;;;;;7.75;100.00;99756.13;5078352;28;19936;-72
2020/12/22 09:46:40;;;;;;;;;;;;;;;7.75;100.00;99753.47;5077265;28;19931;-73
2020/12/22 09:49:07;;;;;;;;;;;;;;;7.76;100.00;99751.69;5058468;28;19928;-76
2020/12/22 09:51:34;;;;;;;;;;;;;;;7.75;100.00;99749.94;5073730;28;19983;-72
2020/12/22 09:54:16;;;;;;;;;;;;;;;7.77;100.00;99746.25;5078886;28;19955;-74
2020/12/22 09:56:42;;;;;;;;;;;;;;;7.78;100.00;99744.44;5063160;28;19933;-70
2020/12/22 09:59:10;;;;;;;;;;;;;;;7.78;100.00;99750.63;5079832;28;20011;-71
2020/12/22 10:01:37;;;;;;;;;;;;;;;7.79;100.00;99744.38;5063049;28;19940;-71
2020/12/22 10:04:04;;;;;;;;;;;;;;;7.80;100.00;99738.09;5058777;28;19960;-70
2020/12/22 10:06:31;;;;;;;;;;;;;;;7.82;100.00;99743.31;5057125;28;20359;-71
2020/12/22 10:08:57;;;;;;;;;;;;;;;7.83;100.00;99745.91;5079663;28;20137;-70
2020/12/22 10:11:25;;;;;;;;;;;;;;;7.82;100.00;99748.66;5080044;28;19928;-71
2020/12/22 10:13:54;;;;;;;;;;;;;;;7.83;100.00;99747.72;5060404;28;19925;-71
2020/12/22 10:16:23;;;;;;;;;;;;;;;7.82;100.00;99749.50;5060878;28;19983;-71
2020/12/22 10:18:50;;;;;;;;;;;;;;;7.82;100.00;99738.00;5071966;28;19932;-70
2020/12/22 10:21:18;;;;;;;;;;;;;;;7.83;100.00;99745.91;5070534;28;19924;-70
2020/12/22 10:23:46;;;;;;;;;;;;;;;7.82;100.00;99738.84;5079921;28;19928;-70
2020/12/22 10:26:15;;;;;;;;;;;;;;;7.83;100.00;99742.41;5094033;28;19929;-70
2020/12/22 10:28:43;;;;;;;;;;;;;;;7.84;100.00;99738.78;5080061;28;19931;-70
2020/12/22 10:31:12;;;;;;;;;;;;;;;7.84;100.00;99736.13;5077277;28;20389;-70
2020/12/22 10:33:39;;;;;;;;;;;;;;;7.86;100.00;99736.88;5052681;28;19928;-70
2020/12/22 10:36:06;;;;;;;;;;;;;;;7.87;100.00;99730.63;5075768;28;19928;-71
2020/12/22 10:38:48;;;;;;;;;;;;;;;7.89;100.00;99721.56;5082018;28;19928;-70
2020/12/22 10:41:15;;;;;;;;;;;;;;;7.90;100.00;99725.13;5079575;28;19931;-70
2020/12/22 10:43:42;;;;;;;;;;;;;;;7.91;100.00;99718.84;5078466;28;19928;-70
2020/12/22 10:46:09;;;;;;;;;;;;;;;7.93;100.00;99715.13;5075559;28;19978;-70
2020/12/22 10:48:37;;;;;;;;;;;;;;;7.95;100.00;99715.03;5074367;28;19994;-70
2020/12/22 10:51:04;;;;;;;;;;;;;;;7.94;100.00;99722.19;5079276;28;19925;-76
2020/12/22 10:53:33;;;;;;;;;;;;;;;7.98;100.00;99730.00;5077645;28;19954;-76
2020/12/22 10:56:00;;;;;;;;;;;;;;;7.97;100.00;99725.59;5075338;28;19939;-75
2020/12/22 10:58:27;;;;;;;;;;;;;;;7.98;100.00;99714.88;5076664;28;20392;-75
2020/12/22 11:00:55;;;;;;;;;;;;;;;8.02;100.00;99718.22;5073826;28;19925;-75
2020/12/22 11:03:22;;;;;;;;;;;;;;;8.01;100.00;99722.69;5069248;28;19928;-74
2020/12/22 11:06:08;;;;;;;;;;;;;;;7.99;100.00;99727.25;5077329;28;19929;-76
2020/12/22 11:08:36;;;;;;;;;;;;;;;8.00;100.00;99728.94;5079101;28;20366;-77
2020/12/22 11:11:05;;;;;;;;;;;;;;;8.01;100.00;99729.84;5076143;28;19929;-78
2020/12/22 11:13:33;;;;;;;;;;;;;;;8.00;100.00;99731.63;5074961;28;19934;-73
2020/12/22 11:16:00;;;;;;;;;;;;;;;8.01;100.00;99733.38;5073972;28;19931;-75
2020/12/22 11:18:27;;;;;;;;;;;;;;;8.02;100.00;99735.06;5076841;28;19935;-77
2020/12/22 11:20:54;;;;;;;;;;;;;;;8.03;100.00;99738.59;5076685;28;20024;-77
2020/12/22 11:23:40;;;;;;;;;;;;;;;8.03;100.00;99734.13;5075904;28;20020;-76
2020/12/22 11:26:10;;;;;;;;;;;;;;;8.05;100.00;99726.91;5077932;28;19935;-75
2020/12/22 11:28:37;;;;;;;;;;;;;;;8.08;100.00;99732.06;5072889;28;19932;-76
2020/12/22 11:31:06;;;;;;;;;;;;;;;8.11;100.00;99734.56;5072343;28;19928;-74
2020/12/22 11:33:33;;;;;;;;;;;;;;;8.25;100.00;99730.22;5076026;28;20435;-76
2020/12/22 11:35:59;;;;;;;;;;;;;;;8.40;100.00;99729.34;5074096;28;19955;-75
2020/12/22 11:38:26;;;;;;;;;;;;;;;8.46;100.00;99731.69;5077339;28;19935;-76
2020/12/22 11:40:53;;;;;;;;;;;;;;;8.49;100.00;99731.50;5077273;28;19928;-75
2020/12/22 11:43:20;;;;;;;;;;;;;;;8.46;100.00;99741.50;5069971;28;19929;-75
2020/12/22 11:45:47;;;;;;;;;;;;;;;8.39;100.00;99736.50;5076383;28;19924;-77
2020/12/22 11:48:15;;;;;;;;;;;;;;;8.40;100.00;99738.25;5077739;28;19932;-77
2020/12/22 11:50:42;;;;;;;;;;;;;;;8.40;100.00;99732.03;5077105;28;20014;-77
2020/12/22 11:53:09;;;;;;;;;;;;;;;8.41;100.00;99728.44;5071118;28;19932;-74
2020/12/22 11:55:36;;;;;;;;;;;;;;;8.40;100.00;99730.25;5072666;28;19936;-74
2020/12/22 11:58:03;;;;;;;;;;;;;;;8.43;100.00;99732.69;5065705;28;19936;-73
2020/12/22 12:00:31;;;;;;;;;;;;;;;8.48;100.00;99734.28;5075618;28;19928;-74
2020/12/22 12:02:59;;;;;;;;;;;;;;;8.51;100.00;99745.63;5072838;28;20431;-73
2020/12/22 12:05:27;;;;;;;;;;;;;;;8.50;100.00;99745.69;5072018;28;19932;-74
2020/12/22 12:07:54;;;;;;;;;;;;;;;8.47;100.00;99743.19;5089565;28;20568;-74
2020/12/22 12:10:21;;;;;;;;;;;;;;;8.44;100.00;99749.59;5051445;28;19929;-73
2020/12/22 12:12:48;;;;;;;;;;;;;;;8.43;100.00;99750.53;5069745;28;19928;-72
2020/12/22 12:15:14;;;;;;;;;;;;;;;8.45;100.00;99753.97;5070865;28;19929;-73
2020/12/22 12:17:41;;;;;;;;;;;;;;;8.49;100.00;99760.84;5070789;28;20006;-74
2020/12/22 12:20:08;;;;;;;;;;;;;;;8.51;100.00;99771.41;5069466;28;19940;-74
2020/12/22 12:22:36;;;;;;;;;;;;;;;8.51;100.00;99766.97;5069722;28;19995;-73
2020/12/22 12:25:03;;;;;;;;;;;;;;;8.53;100.00;99769.53;5069292;28;20409;-73
2020/12/22 12:27:30;;;;;;;;;;;;;;;8.52;100.00;99771.34;5072061;28;19935;-73
2020/12/22 12:29:57;;;;;;;;;;;;;;;8.48;100.00;99776.97;5076789;28;20404;-71
2020/12/22 12:32:26;;;;;;;;;;;;;;;8.46;100.00;99782.38;5074350;28;19928;-74
2020/12/22 12:34:53;;;;;;;;;;;;;;;8.45;100.00;99783.31;5073850;28;20000;-73
2020/12/22 12:37:19;;;;;;;;;;;;;;;8.45;100.00;99785.13;5075102;28;19948;-69
2020/12/22 12:39:47;;;;;;;;;;;;;;;8.43;100.00;99785.19;5068124;28;19924;-71
2020/12/22 12:42:15;;;;;;;;;;;;;;;8.47;100.00;99791.22;5053773;28;20473;-73
2020/12/22 12:44:41;;;;;;;;;;;;;;;8.49;100.00;99800.88;5077320;28;19955;-72
2020/12/22 12:47:08;;;;;;;;;;;;;;;8.57;100.00;99797.75;5077206;28;19932;-70
2020/12/22 12:49:35;;;;;;;;;;;;;;;8.60;100.00;99790.44;5093039;28;19935;-69